sensor_id;sensor_type;location;lat;lon;timestamp;temperature;humidity
19389;DHT22;9830;41.876;23.474;2022-08-19T00:01:40;15.50;99.90
19389;DHT22;9830;41.876;23.474;2022-08-19T00:04:09;15.50;99.90
19389;DHT22;9830;41.876;23.474;2022-08-19T00:06:37;15.50;99.90
19389;DHT22;9830;41.876;23.474;2022-08-19T00:09:05;15.40;99.90
19389;DHT22;9830;41.876;23.474;2022-08-19T00:11:31;15.20;99.90
19389;DHT22;9830;41.876;23.474;2022-08-19T00:13:57;15.10;99.90
19389;DHT22;9830;41.876;23.474;2022-08-19T00:16:25;15.10;99.90
19389;DHT22;9830;41.876;23.474;2022-08-19T00:18:51;15.20;99.90
19389;DHT22;9830;41.876;23.474;2022-08-19T00:21:17;15.10;99.90
19389;DHT22;9830;41.876;23.474;2022-08-19T00:23:43;15.10;99.90
19389;DHT22;9830;41.876;23.474;2022-08-19T00:26:10;15.10;99.90
19389;DHT22;9830;41.876;23.474;2022-08-19T00:28:36;14.90;99.90
19389;DHT22;9830;41.876;23.474;2022-08-19T00:31:04;14.90;99.90
19389;DHT22;9830;41.876;23.474;2022-08-19T00:33:31;15.00;99.90
19389;DHT22;9830;41.876;23.474;2022-08-19T00:36:05;15.00;99.90
19389;DHT22;9830;41.876;23.474;2022-08-19T00:38:32;15.00;99.90
19389;DHT22;9830;41.876;23.474;2022-08-19T00:40:58;14.90;99.90
19389;DHT22;9830;41.876;23.474;2022-08-19T00:43:25;15.10;99.90
19389;DHT22;9830;41.876;23.474;2022-08-19T00:45:52;15.00;99.90
19389;DHT22;9830;41.876;23.474;2022-08-19T00:48:18;14.80;99.90
19389;DHT22;9830;41.876;23.474;2022-08-19T00:50:45;14.60;99.90
19389;DHT22;9830;41.876;23.474;2022-08-19T00:53:15;14.40;99.90
19389;DHT22;9830;41.876;23.474;2022-08-19T00:55:45;14.30;99.90
19389;DHT22;9830;41.876;23.474;2022-08-19T00:58:14;14.20;99.90
19389;DHT22;9830;41.876;23.474;2022-08-19T01:00:40;14.30;99.90
19389;DHT22;9830;41.876;23.474;2022-08-19T01:03:09;14.40;99.90
19389;DHT22;9830;41.876;23.474;2022-08-19T01:05:36;14.40;99.90
19389;DHT22;9830;41.876;23.474;2022-08-19T01:08:05;14.50;99.90
19389;DHT22;9830;41.876;23.474;2022-08-19T01:10:36;14.60;99.90
19389;DHT22;9830;41.876;23.474;2022-08-19T01:13:03;14.70;99.90
19389;DHT22;9830;41.876;23.474;2022-08-19T01:15:32;14.80;99.90
19389;DHT22;9830;41.876;23.474;2022-08-19T01:18:06;14.90;99.90
19389;DHT22;9830;41.876;23.474;2022-08-19T01:20:33;14.70;99.90
19389;DHT22;9830;41.876;23.474;2022-08-19T01:23:00;14.70;99.90
19389;DHT22;9830;41.876;23.474;2022-08-19T01:25:45;14.70;99.90
19389;DHT22;9830;41.876;23.474;2022-08-19T01:28:20;14.60;99.90
19389;DHT22;9830;41.876;23.474;2022-08-19T01:30:48;14.50;99.90
19389;DHT22;9830;41.876;23.474;2022-08-19T01:33:14;14.30;99.90
19389;DHT22;9830;41.876;23.474;2022-08-19T01:35:41;14.20;99.90
19389;DHT22;9830;41.876;23.474;2022-08-19T01:38:10;14.10;99.90
19389;DHT22;9830;41.876;23.474;2022-08-19T01:40:44;14.10;99.90
19389;DHT22;9830;41.876;23.474;2022-08-19T01:43:10;14.10;99.90
19389;DHT22;9830;41.876;23.474;2022-08-19T01:45:36;14.10;99.90
19389;DHT22;9830;41.876;23.474;2022-08-19T01:48:03;14.20;99.90
19389;DHT22;9830;41.876;23.474;2022-08-19T01:50:31;14.30;99.90
19389;DHT22;9830;41.876;23.474;2022-08-19T01:52:57;14.30;99.90
19389;DHT22;9830;41.876;23.474;2022-08-19T01:55:25;14.40;99.90
19389;DHT22;9830;41.876;23.474;2022-08-19T01:58:00;14.40;99.90
19389;DHT22;9830;41.876;23.474;2022-08-19T02:00:30;14.40;99.90
19389;DHT22;9830;41.876;23.474;2022-08-19T02:02:56;14.40;99.90
19389;DHT22;9830;41.876;23.474;2022-08-19T02:05:22;14.40;99.90
19389;DHT22;9830;41.876;23.474;2022-08-19T02:07:48;14.30;99.90
19389;DHT22;9830;41.876;23.474;2022-08-19T02:10:20;14.30;99.90
19389;DHT22;9830;41.876;23.474;2022-08-19T02:12:47;14.30;99.90
19389;DHT22;9830;41.876;23.474;2022-08-19T02:15:13;14.20;99.90
19389;DHT22;9830;41.876;23.474;2022-08-19T02:17:39;14.00;99.90
19389;DHT22;9830;41.876;23.474;2022-08-19T02:20:06;14.00;99.90
19389;DHT22;9830;41.876;23.474;2022-08-19T02:22:33;13.80;99.90
19389;DHT22;9830;41.876;23.474;2022-08-19T02:24:59;13.50;99.90
19389;DHT22;9830;41.876;23.474;2022-08-19T02:27:25;13.50;99.90
19389;DHT22;9830;41.876;23.474;2022-08-19T02:29:53;13.40;99.90
19389;DHT22;9830;41.876;23.474;2022-08-19T02:32:19;13.20;99.90
19389;DHT22;9830;41.876;23.474;2022-08-19T02:34:48;13.20;99.90
19389;DHT22;9830;41.876;23.474;2022-08-19T02:37:14;13.20;99.90
19389;DHT22;9830;41.876;23.474;2022-08-19T02:40:18;13.40;99.90
19389;DHT22;9830;41.876;23.474;2022-08-19T02:42:45;13.50;99.90
19389;DHT22;9830;41.876;23.474;2022-08-19T02:45:12;13.60;99.90
19389;DHT22;9830;41.876;23.474;2022-08-19T02:47:39;13.60;99.90
19389;DHT22;9830;41.876;23.474;2022-08-19T02:50:05;13.60;99.90
19389;DHT22;9830;41.876;23.474;2022-08-19T02:52:32;13.60;99.90
19389;DHT22;9830;41.876;23.474;2022-08-19T02:54:58;13.60;99.90
19389;DHT22;9830;41.876;23.474;2022-08-19T02:57:24;13.60;99.90
19389;DHT22;9830;41.876;23.474;2022-08-19T02:59:50;13.50;99.90
19389;DHT22;9830;41.876;23.474;2022-08-19T03:02:16;13.40;99.90
19389;DHT22;9830;41.876;23.474;2022-08-19T03:04:42;13.30;99.90
19389;DHT22;9830;41.876;23.474;2022-08-19T03:07:08;13.10;99.90
19389;DHT22;9830;41.876;23.474;2022-08-19T03:09:37;13.20;99.90
19389;DHT22;9830;41.876;23.474;2022-08-19T03:12:04;13.20;99.90
19389;DHT22;9830;41.876;23.474;2022-08-19T03:14:31;13.10;99.90
19389;DHT22;9830;41.876;23.474;2022-08-19T03:16:57;13.00;99.90
19389;DHT22;9830;41.876;23.474;2022-08-19T03:19:23;12.80;99.90
19389;DHT22;9830;41.876;23.474;2022-08-19T03:21:50;13.00;99.90
19389;DHT22;9830;41.876;23.474;2022-08-19T03:24:16;12.90;99.90
19389;DHT22;9830;41.876;23.474;2022-08-19T03:26:48;12.80;99.90
19389;DHT22;9830;41.876;23.474;2022-08-19T03:29:15;12.80;99.90
19389;DHT22;9830;41.876;23.474;2022-08-19T03:31:43;12.90;99.90
19389;DHT22;9830;41.876;23.474;2022-08-19T03:34:12;13.00;99.90
19389;DHT22;9830;41.876;23.474;2022-08-19T03:36:38;13.10;99.90
19389;DHT22;9830;41.876;23.474;2022-08-19T03:39:04;13.10;99.90
19389;DHT22;9830;41.876;23.474;2022-08-19T03:41:32;13.10;99.90
19389;DHT22;9830;41.876;23.474;2022-08-19T03:43:59;13.10;99.90
19389;DHT22;9830;41.876;23.474;2022-08-19T03:46:27;13.10;99.90
19389;DHT22;9830;41.876;23.474;2022-08-19T03:48:56;13.10;99.90
19389;DHT22;9830;41.876;23.474;2022-08-19T03:51:32;13.10;99.90
19389;DHT22;9830;41.876;23.474;2022-08-19T03:54:01;13.20;99.90
19389;DHT22;9830;41.876;23.474;2022-08-19T03:56:28;13.30;99.90
19389;DHT22;9830;41.876;23.474;2022-08-19T03:58:55;13.40;99.90
19389;DHT22;9830;41.876;23.474;2022-08-19T04:01:24;13.40;99.90
19389;DHT22;9830;41.876;23.474;2022-08-19T04:03:52;13.40;99.90
19389;DHT22;9830;41.876;23.474;2022-08-19T04:06:21;13.70;99.90
19389;DHT22;9830;41.876;23.474;2022-08-19T04:08:49;14.30;99.90
19389;DHT22;9830;41.876;23.474;2022-08-19T04:11:18;14.60;99.90
19389;DHT22;9830;41.876;23.474;2022-08-19T04:13:47;14.70;99.90
19389;DHT22;9830;41.876;23.474;2022-08-19T04:16:13;14.90;99.90
19389;DHT22;9830;41.876;23.474;2022-08-19T04:18:40;15.60;99.90
19389;DHT22;9830;41.876;23.474;2022-08-19T04:21:06;16.00;99.90
19389;DHT22;9830;41.876;23.474;2022-08-19T04:23:33;16.50;98.10
19389;DHT22;9830;41.876;23.474;2022-08-19T04:25:59;16.90;96.60
19389;DHT22;9830;41.876;23.474;2022-08-19T04:28:25;17.10;96.50
19389;DHT22;9830;41.876;23.474;2022-08-19T04:30:53;17.40;95.70
19389;DHT22;9830;41.876;23.474;2022-08-19T04:33:22;17.80;94.40
19389;DHT22;9830;41.876;23.474;2022-08-19T04:35:49;18.30;93.10
19389;DHT22;9830;41.876;23.474;2022-08-19T04:38:18;18.70;92.40
19389;DHT22;9830;41.876;23.474;2022-08-19T04:40:46;18.70;91.40
19389;DHT22;9830;41.876;23.474;2022-08-19T04:43:31;19.10;91.00
19389;DHT22;9830;41.876;23.474;2022-08-19T04:45:57;19.70;88.30
19389;DHT22;9830;41.876;23.474;2022-08-19T04:48:24;19.70;89.70
19389;DHT22;9830;41.876;23.474;2022-08-19T04:50:54;20.30;87.00
19389;DHT22;9830;41.876;23.474;2022-08-19T04:53:31;20.30;84.20
19389;DHT22;9830;41.876;23.474;2022-08-19T04:55:58;20.50;83.80
19389;DHT22;9830;41.876;23.474;2022-08-19T04:58:26;21.00;81.00
19389;DHT22;9830;41.876;23.474;2022-08-19T05:00:52;21.70;77.60
19389;DHT22;9830;41.876;23.474;2022-08-19T05:03:18;22.90;71.40
19389;DHT22;9830;41.876;23.474;2022-08-19T05:05:45;23.90;67.60
19389;DHT22;9830;41.876;23.474;2022-08-19T05:08:15;24.70;62.50
19389;DHT22;9830;41.876;23.474;2022-08-19T05:10:45;24.90;60.20
19389;DHT22;9830;41.876;23.474;2022-08-19T05:13:11;25.00;60.10
19389;DHT22;9830;41.876;23.474;2022-08-19T05:15:37;24.50;60.70
19389;DHT22;9830;41.876;23.474;2022-08-19T05:18:03;24.60;61.40
19389;DHT22;9830;41.876;23.474;2022-08-19T05:20:47;25.10;60.00
19389;DHT22;9830;41.876;23.474;2022-08-19T05:23:31;25.40;58.40
19389;DHT22;9830;41.876;23.474;2022-08-19T05:25:57;25.40;57.50
19389;DHT22;9830;41.876;23.474;2022-08-19T05:28:23;25.70;57.20
19389;DHT22;9830;41.876;23.474;2022-08-19T05:30:49;24.50;60.20
19389;DHT22;9830;41.876;23.474;2022-08-19T05:33:17;26.20;56.20
19389;DHT22;9830;41.876;23.474;2022-08-19T05:35:42;26.50;54.10
19389;DHT22;9830;41.876;23.474;2022-08-19T05:38:10;26.40;54.90
19389;DHT22;9830;41.876;23.474;2022-08-19T05:40:37;27.60;52.70
19389;DHT22;9830;41.876;23.474;2022-08-19T05:43:05;28.30;52.10
19389;DHT22;9830;41.876;23.474;2022-08-19T05:45:32;27.60;51.90
19389;DHT22;9830;41.876;23.474;2022-08-19T05:47:57;27.00;53.20
19389;DHT22;9830;41.876;23.474;2022-08-19T05:50:24;27.70;51.90
19389;DHT22;9830;41.876;23.474;2022-08-19T05:52:51;28.80;49.30
19389;DHT22;9830;41.876;23.474;2022-08-19T05:55:17;28.60;49.50
19389;DHT22;9830;41.876;23.474;2022-08-19T05:57:45;29.20;48.80
19389;DHT22;9830;41.876;23.474;2022-08-19T06:00:11;30.10;47.10
19389;DHT22;9830;41.876;23.474;2022-08-19T06:02:38;30.50;44.30
19389;DHT22;9830;41.876;23.474;2022-08-19T06:05:05;30.40;44.60
19389;DHT22;9830;41.876;23.474;2022-08-19T06:07:32;28.80;47.40
19389;DHT22;9830;41.876;23.474;2022-08-19T06:09:58;27.80;49.80
19389;DHT22;9830;41.876;23.474;2022-08-19T06:12:24;28.80;48.30
19389;DHT22;9830;41.876;23.474;2022-08-19T06:14:55;30.40;45.30
19389;DHT22;9830;41.876;23.474;2022-08-19T06:17:21;31.00;43.50
19389;DHT22;9830;41.876;23.474;2022-08-19T06:19:50;31.00;43.70
19389;DHT22;9830;41.876;23.474;2022-08-19T06:22:15;30.50;44.50
19389;DHT22;9830;41.876;23.474;2022-08-19T06:24:41;30.60;45.70
19389;DHT22;9830;41.876;23.474;2022-08-19T06:27:07;29.70;46.80
19389;DHT22;9830;41.876;23.474;2022-08-19T06:29:33;30.40;45.40
19389;DHT22;9830;41.876;23.474;2022-08-19T06:32:02;30.80;45.00
19389;DHT22;9830;41.876;23.474;2022-08-19T06:34:30;31.50;44.00
19389;DHT22;9830;41.876;23.474;2022-08-19T06:36:57;31.80;42.40
19389;DHT22;9830;41.876;23.474;2022-08-19T06:39:29;32.80;42.40
19389;DHT22;9830;41.876;23.474;2022-08-19T06:41:58;33.30;41.20
19389;DHT22;9830;41.876;23.474;2022-08-19T06:44:26;32.50;41.40
19389;DHT22;9830;41.876;23.474;2022-08-19T06:46:53;33.80;39.20
19389;DHT22;9830;41.876;23.474;2022-08-19T06:49:19;33.60;39.30
19389;DHT22;9830;41.876;23.474;2022-08-19T06:51:47;33.70;37.80
19389;DHT22;9830;41.876;23.474;2022-08-19T06:54:13;33.60;37.90
19389;DHT22;9830;41.876;23.474;2022-08-19T06:56:39;34.60;36.80
19389;DHT22;9830;41.876;23.474;2022-08-19T06:59:10;35.20;35.50
19389;DHT22;9830;41.876;23.474;2022-08-19T07:01:42;33.50;37.20
19389;DHT22;9830;41.876;23.474;2022-08-19T07:04:09;34.70;36.90
19389;DHT22;9830;41.876;23.474;2022-08-19T07:06:36;34.10;37.40
19389;DHT22;9830;41.876;23.474;2022-08-19T07:09:07;33.50;38.50
19389;DHT22;9830;41.876;23.474;2022-08-19T07:11:33;34.80;36.90
19389;DHT22;9830;41.876;23.474;2022-08-19T07:14:00;34.60;36.40
19389;DHT22;9830;41.876;23.474;2022-08-19T07:16:26;33.60;37.80
19389;DHT22;9830;41.876;23.474;2022-08-19T07:18:52;34.90;37.20
19389;DHT22;9830;41.876;23.474;2022-08-19T07:21:27;35.40;37.10
19389;DHT22;9830;41.876;23.474;2022-08-19T07:23:56;34.60;37.20
19389;DHT22;9830;41.876;23.474;2022-08-19T07:26:25;34.20;38.60
19389;DHT22;9830;41.876;23.474;2022-08-19T07:28:52;34.80;37.70
19389;DHT22;9830;41.876;23.474;2022-08-19T07:31:22;34.10;38.40
19389;DHT22;9830;41.876;23.474;2022-08-19T07:33:50;34.70;37.30
19389;DHT22;9830;41.876;23.474;2022-08-19T07:36:19;35.60;35.80
19389;DHT22;9830;41.876;23.474;2022-08-19T07:38:47;35.40;37.30
19389;DHT22;9830;41.876;23.474;2022-08-19T07:41:17;35.60;36.20
19389;DHT22;9830;41.876;23.474;2022-08-19T07:43:43;35.20;36.90
19389;DHT22;9830;41.876;23.474;2022-08-19T07:46:10;35.70;35.80
19389;DHT22;9830;41.876;23.474;2022-08-19T07:48:37;37.10;34.40
19389;DHT22;9830;41.876;23.474;2022-08-19T07:51:05;36.20;35.20
19389;DHT22;9830;41.876;23.474;2022-08-19T07:53:32;36.20;35.50
19389;DHT22;9830;41.876;23.474;2022-08-19T07:56:01;36.70;34.80
19389;DHT22;9830;41.876;23.474;2022-08-19T07:58:28;36.40;34.80
19389;DHT22;9830;41.876;23.474;2022-08-19T08:00:54;37.10;34.00
19389;DHT22;9830;41.876;23.474;2022-08-19T08:03:21;37.70;33.50
19389;DHT22;9830;41.876;23.474;2022-08-19T08:06:07;37.70;33.50
19389;DHT22;9830;41.876;23.474;2022-08-19T08:08:51;38.30;33.10
19389;DHT22;9830;41.876;23.474;2022-08-19T08:11:36;39.20;31.20
19389;DHT22;9830;41.876;23.474;2022-08-19T08:14:02;38.90;31.70
19389;DHT22;9830;41.876;23.474;2022-08-19T08:16:28;38.10;33.00
19389;DHT22;9830;41.876;23.474;2022-08-19T08:18:55;38.80;32.90
19389;DHT22;9830;41.876;23.474;2022-08-19T08:21:21;39.10;31.60
19389;DHT22;9830;41.876;23.474;2022-08-19T08:23:46;38.40;31.90
19389;DHT22;9830;41.876;23.474;2022-08-19T08:26:12;38.20;32.00
19389;DHT22;9830;41.876;23.474;2022-08-19T08:28:39;38.90;32.10
19389;DHT22;9830;41.876;23.474;2022-08-19T08:31:05;39.20;31.80
19389;DHT22;9830;41.876;23.474;2022-08-19T08:33:31;40.00;30.10
19389;DHT22;9830;41.876;23.474;2022-08-19T08:35:56;39.30;30.90
19389;DHT22;9830;41.876;23.474;2022-08-19T08:38:22;39.20;30.50
19389;DHT22;9830;41.876;23.474;2022-08-19T08:40:51;39.80;29.50
19389;DHT22;9830;41.876;23.474;2022-08-19T08:43:33;39.60;29.80
19389;DHT22;9830;41.876;23.474;2022-08-19T08:46:06;39.80;29.70
19389;DHT22;9830;41.876;23.474;2022-08-19T08:48:52;39.70;29.50
19389;DHT22;9830;41.876;23.474;2022-08-19T08:51:51;40.10;29.20
19389;DHT22;9830;41.876;23.474;2022-08-19T08:54:20;40.20;28.10
19389;DHT22;9830;41.876;23.474;2022-08-19T08:56:49;39.80;27.60
19389;DHT22;9830;41.876;23.474;2022-08-19T08:59:26;39.80;28.50
19389;DHT22;9830;41.876;23.474;2022-08-19T09:01:53;39.90;28.20
19389;DHT22;9830;41.876;23.474;2022-08-19T09:04:19;40.20;28.00
19389;DHT22;9830;41.876;23.474;2022-08-19T09:07:14;40.70;27.60
19389;DHT22;9830;41.876;23.474;2022-08-19T09:09:46;40.80;25.70
19389;DHT22;9830;41.876;23.474;2022-08-19T09:14:48;42.00;26.10
19389;DHT22;9830;41.876;23.474;2022-08-19T09:17:15;41.90;26.50
19389;DHT22;9830;41.876;23.474;2022-08-19T09:22:34;40.50;26.60
19389;DHT22;9830;41.876;23.474;2022-08-19T09:25:01;40.90;25.80
19389;DHT22;9830;41.876;23.474;2022-08-19T09:27:27;41.20;25.70
19389;DHT22;9830;41.876;23.474;2022-08-19T09:29:54;40.60;25.50
19389;DHT22;9830;41.876;23.474;2022-08-19T09:32:21;40.20;25.80
19389;DHT22;9830;41.876;23.474;2022-08-19T09:34:47;40.50;26.20
19389;DHT22;9830;41.876;23.474;2022-08-19T09:37:13;40.80;24.80
19389;DHT22;9830;41.876;23.474;2022-08-19T09:39:40;39.80;25.30
19389;DHT22;9830;41.876;23.474;2022-08-19T09:42:07;40.80;26.00
19389;DHT22;9830;41.876;23.474;2022-08-19T09:44:38;40.50;25.10
19389;DHT22;9830;41.876;23.474;2022-08-19T09:47:04;40.20;25.20
19389;DHT22;9830;41.876;23.474;2022-08-19T09:49:30;40.70;26.10
19389;DHT22;9830;41.876;23.474;2022-08-19T09:51:56;41.00;25.10
19389;DHT22;9830;41.876;23.474;2022-08-19T09:54:23;40.90;25.60
19389;DHT22;9830;41.876;23.474;2022-08-19T09:56:49;40.60;25.80
19389;DHT22;9830;41.876;23.474;2022-08-19T09:59:15;40.10;25.90
19389;DHT22;9830;41.876;23.474;2022-08-19T10:01:41;39.60;27.10
19389;DHT22;9830;41.876;23.474;2022-08-19T10:04:06;39.60;25.80
19389;DHT22;9830;41.876;23.474;2022-08-19T10:06:35;39.10;27.30
19389;DHT22;9830;41.876;23.474;2022-08-19T10:09:02;39.00;27.00
19389;DHT22;9830;41.876;23.474;2022-08-19T10:11:29;38.50;26.90
19389;DHT22;9830;41.876;23.474;2022-08-19T10:13:55;38.50;26.90
19389;DHT22;9830;41.876;23.474;2022-08-19T10:16:22;38.40;27.50
19389;DHT22;9830;41.876;23.474;2022-08-19T10:18:49;38.30;27.00
19389;DHT22;9830;41.876;23.474;2022-08-19T10:23:47;38.20;26.90
19389;DHT22;9830;41.876;23.474;2022-08-19T10:26:19;38.60;27.50
19389;DHT22;9830;41.876;23.474;2022-08-19T10:28:45;38.30;27.70
19389;DHT22;9830;41.876;23.474;2022-08-19T10:31:17;38.10;28.30
19389;DHT22;9830;41.876;23.474;2022-08-19T10:33:45;38.00;27.20
19389;DHT22;9830;41.876;23.474;2022-08-19T10:36:17;38.10;28.10
19389;DHT22;9830;41.876;23.474;2022-08-19T10:38:47;38.60;27.40
19389;DHT22;9830;41.876;23.474;2022-08-19T10:41:23;38.20;27.60
19389;DHT22;9830;41.876;23.474;2022-08-19T10:43:58;38.20;29.20
19389;DHT22;9830;41.876;23.474;2022-08-19T10:46:25;38.00;29.00
19389;DHT22;9830;41.876;23.474;2022-08-19T10:48:52;37.70;30.10
19389;DHT22;9830;41.876;23.474;2022-08-19T10:51:18;37.40;30.20
19389;DHT22;9830;41.876;23.474;2022-08-19T10:54:03;37.60;29.80
19389;DHT22;9830;41.876;23.474;2022-08-19T10:56:29;37.50;30.70
19389;DHT22;9830;41.876;23.474;2022-08-19T10:59:14;37.40;28.60
19389;DHT22;9830;41.876;23.474;2022-08-19T11:01:43;37.20;29.60
19389;DHT22;9830;41.876;23.474;2022-08-19T11:04:09;37.40;29.60
19389;DHT22;9830;41.876;23.474;2022-08-19T11:06:39;37.50;30.10
19389;DHT22;9830;41.876;23.474;2022-08-19T11:09:06;37.60;30.80
19389;DHT22;9830;41.876;23.474;2022-08-19T11:11:34;37.30;30.50
19389;DHT22;9830;41.876;23.474;2022-08-19T11:14:05;37.30;29.90
19389;DHT22;9830;41.876;23.474;2022-08-19T11:16:30;37.00;31.40
19389;DHT22;9830;41.876;23.474;2022-08-19T11:18:58;36.90;31.90
19389;DHT22;9830;41.876;23.474;2022-08-19T11:23:54;37.00;30.30
19389;DHT22;9830;41.876;23.474;2022-08-19T11:26:21;37.00;31.10
19389;DHT22;9830;41.876;23.474;2022-08-19T11:28:48;36.90;30.10
19389;DHT22;9830;41.876;23.474;2022-08-19T11:31:18;36.70;30.00
19389;DHT22;9830;41.876;23.474;2022-08-19T11:33:44;36.60;30.60
19389;DHT22;9830;41.876;23.474;2022-08-19T11:36:12;36.70;31.00
19389;DHT22;9830;41.876;23.474;2022-08-19T11:38:38;36.60;30.70
19389;DHT22;9830;41.876;23.474;2022-08-19T11:41:06;36.40;32.00
19389;DHT22;9830;41.876;23.474;2022-08-19T11:43:35;36.40;31.10
19389;DHT22;9830;41.876;23.474;2022-08-19T11:46:10;36.70;30.50
19389;DHT22;9830;41.876;23.474;2022-08-19T11:48:36;36.60;31.20
19389;DHT22;9830;41.876;23.474;2022-08-19T11:51:09;36.50;32.10
19389;DHT22;9830;41.876;23.474;2022-08-19T11:53:35;36.30;30.90
19389;DHT22;9830;41.876;23.474;2022-08-19T11:56:01;36.50;31.60
19389;DHT22;9830;41.876;23.474;2022-08-19T11:58:27;36.30;31.20
19389;DHT22;9830;41.876;23.474;2022-08-19T12:00:54;36.30;31.70
19389;DHT22;9830;41.876;23.474;2022-08-19T12:03:20;36.10;31.10
19389;DHT22;9830;41.876;23.474;2022-08-19T12:05:46;35.90;32.00
19389;DHT22;9830;41.876;23.474;2022-08-19T12:08:12;35.90;32.70
19389;DHT22;9830;41.876;23.474;2022-08-19T12:10:41;36.00;32.80
19389;DHT22;9830;41.876;23.474;2022-08-19T12:13:08;35.70;33.30
19389;DHT22;9830;41.876;23.474;2022-08-19T12:15:38;35.70;31.60
19389;DHT22;9830;41.876;23.474;2022-08-19T12:18:08;35.80;32.70
19389;DHT22;9830;41.876;23.474;2022-08-19T12:20:36;35.90;31.70
19389;DHT22;9830;41.876;23.474;2022-08-19T12:23:03;35.80;32.20
19389;DHT22;9830;41.876;23.474;2022-08-19T12:25:29;35.60;31.60
19389;DHT22;9830;41.876;23.474;2022-08-19T12:27:56;35.40;33.00
19389;DHT22;9830;41.876;23.474;2022-08-19T12:30:22;35.60;32.60
19389;DHT22;9830;41.876;23.474;2022-08-19T12:32:47;35.60;32.10
19389;DHT22;9830;41.876;23.474;2022-08-19T12:35:13;35.60;32.40
19389;DHT22;9830;41.876;23.474;2022-08-19T12:37:39;35.50;32.40
19389;DHT22;9830;41.876;23.474;2022-08-19T12:40:08;35.40;32.40
19389;DHT22;9830;41.876;23.474;2022-08-19T12:42:34;35.30;32.90
19389;DHT22;9830;41.876;23.474;2022-08-19T12:45:00;35.30;34.70
19389;DHT22;9830;41.876;23.474;2022-08-19T12:47:26;35.20;34.50
19389;DHT22;9830;41.876;23.474;2022-08-19T12:49:52;35.30;34.90
19389;DHT22;9830;41.876;23.474;2022-08-19T12:52:18;35.30;34.40
19389;DHT22;9830;41.876;23.474;2022-08-19T12:54:46;35.40;32.70
19389;DHT22;9830;41.876;23.474;2022-08-19T12:57:12;35.50;34.30
19389;DHT22;9830;41.876;23.474;2022-08-19T12:59:38;35.60;34.30
19389;DHT22;9830;41.876;23.474;2022-08-19T13:02:05;35.50;34.10
19389;DHT22;9830;41.876;23.474;2022-08-19T13:04:33;35.50;32.90
19389;DHT22;9830;41.876;23.474;2022-08-19T13:07:02;35.30;33.90
19389;DHT22;9830;41.876;23.474;2022-08-19T13:09:28;35.10;32.90
19389;DHT22;9830;41.876;23.474;2022-08-19T13:11:53;35.10;33.30
19389;DHT22;9830;41.876;23.474;2022-08-19T13:14:19;35.10;32.50
19389;DHT22;9830;41.876;23.474;2022-08-19T13:16:45;34.90;33.00
19389;DHT22;9830;41.876;23.474;2022-08-19T13:19:11;35.00;34.10
19389;DHT22;9830;41.876;23.474;2022-08-19T13:21:38;34.90;34.40
19389;DHT22;9830;41.876;23.474;2022-08-19T13:24:05;34.80;34.80
19389;DHT22;9830;41.876;23.474;2022-08-19T13:26:31;34.90;34.60
19389;DHT22;9830;41.876;23.474;2022-08-19T13:28:57;34.80;33.70
19389;DHT22;9830;41.876;23.474;2022-08-19T13:31:41;34.70;35.90
19389;DHT22;9830;41.876;23.474;2022-08-19T13:34:39;34.80;34.80
19389;DHT22;9830;41.876;23.474;2022-08-19T13:37:05;34.90;34.20
19389;DHT22;9830;41.876;23.474;2022-08-19T13:39:32;34.70;35.10
19389;DHT22;9830;41.876;23.474;2022-08-19T13:41:58;34.60;34.80
19389;DHT22;9830;41.876;23.474;2022-08-19T13:44:25;34.70;34.70
19389;DHT22;9830;41.876;23.474;2022-08-19T13:46:51;34.70;35.60
19389;DHT22;9830;41.876;23.474;2022-08-19T13:49:19;34.70;35.30
19389;DHT22;9830;41.876;23.474;2022-08-19T13:51:46;34.60;35.10
19389;DHT22;9830;41.876;23.474;2022-08-19T13:54:12;34.60;35.40
19389;DHT22;9830;41.876;23.474;2022-08-19T13:56:43;34.50;34.80
19389;DHT22;9830;41.876;23.474;2022-08-19T13:59:09;34.40;35.40
19389;DHT22;9830;41.876;23.474;2022-08-19T14:01:35;34.40;35.80
19389;DHT22;9830;41.876;23.474;2022-08-19T14:04:02;34.40;36.60
19389;DHT22;9830;41.876;23.474;2022-08-19T14:06:28;34.40;36.50
19389;DHT22;9830;41.876;23.474;2022-08-19T14:08:53;34.40;37.00
19389;DHT22;9830;41.876;23.474;2022-08-19T14:11:19;34.30;36.10
19389;DHT22;9830;41.876;23.474;2022-08-19T14:13:45;34.30;36.20
19389;DHT22;9830;41.876;23.474;2022-08-19T14:16:13;34.30;35.80
19389;DHT22;9830;41.876;23.474;2022-08-19T14:18:43;34.10;36.90
19389;DHT22;9830;41.876;23.474;2022-08-19T14:21:21;34.00;36.60
19389;DHT22;9830;41.876;23.474;2022-08-19T14:23:48;33.90;36.30
19389;DHT22;9830;41.876;23.474;2022-08-19T14:26:15;34.00;36.70
19389;DHT22;9830;41.876;23.474;2022-08-19T14:28:42;34.10;36.80
19389;DHT22;9830;41.876;23.474;2022-08-19T14:31:11;34.00;36.60
19389;DHT22;9830;41.876;23.474;2022-08-19T14:33:36;33.90;37.30
19389;DHT22;9830;41.876;23.474;2022-08-19T14:36:03;33.70;37.20
19389;DHT22;9830;41.876;23.474;2022-08-19T14:38:29;33.70;36.90
19389;DHT22;9830;41.876;23.474;2022-08-19T14:41:07;33.50;36.20
19389;DHT22;9830;41.876;23.474;2022-08-19T14:43:33;33.40;36.00
19389;DHT22;9830;41.876;23.474;2022-08-19T14:45:59;33.30;36.20
19389;DHT22;9830;41.876;23.474;2022-08-19T14:48:25;33.20;36.50
19389;DHT22;9830;41.876;23.474;2022-08-19T14:50:51;33.10;36.90
19389;DHT22;9830;41.876;23.474;2022-08-19T14:53:17;32.90;37.00
19389;DHT22;9830;41.876;23.474;2022-08-19T14:55:44;33.00;36.90
19389;DHT22;9830;41.876;23.474;2022-08-19T14:58:11;32.80;36.50
19389;DHT22;9830;41.876;23.474;2022-08-19T15:00:37;32.80;36.70
19389;DHT22;9830;41.876;23.474;2022-08-19T15:03:03;32.80;37.20
19389;DHT22;9830;41.876;23.474;2022-08-19T15:05:29;32.80;36.80
19389;DHT22;9830;41.876;23.474;2022-08-19T15:07:55;32.80;37.80
19389;DHT22;9830;41.876;23.474;2022-08-19T15:10:22;32.80;37.70
19389;DHT22;9830;41.876;23.474;2022-08-19T15:12:50;32.70;37.40
19389;DHT22;9830;41.876;23.474;2022-08-19T15:15:16;32.60;38.60
19389;DHT22;9830;41.876;23.474;2022-08-19T15:17:44;32.50;38.00
19389;DHT22;9830;41.876;23.474;2022-08-19T15:20:12;32.40;37.90
19389;DHT22;9830;41.876;23.474;2022-08-19T15:22:38;32.20;38.20
19389;DHT22;9830;41.876;23.474;2022-08-19T15:25:08;32.10;38.30
19389;DHT22;9830;41.876;23.474;2022-08-19T15:27:34;32.00;38.70
19389;DHT22;9830;41.876;23.474;2022-08-19T15:30:01;32.00;38.40
19389;DHT22;9830;41.876;23.474;2022-08-19T15:32:26;32.00;38.70
19389;DHT22;9830;41.876;23.474;2022-08-19T15:34:53;32.00;38.90
19389;DHT22;9830;41.876;23.474;2022-08-19T15:37:20;31.90;38.60
19389;DHT22;9830;41.876;23.474;2022-08-19T15:39:47;31.80;38.10
19389;DHT22;9830;41.876;23.474;2022-08-19T15:42:13;31.80;38.80
19389;DHT22;9830;41.876;23.474;2022-08-19T15:44:38;31.70;39.60
19389;DHT22;9830;41.876;23.474;2022-08-19T15:47:04;31.70;40.30